Airfield :
LOGIN :

Register | Disclaimer

   EN    FR    IT 

 










Legend :    VFR   Marginal VFR   IFR   Intensive IFR   Very Intensive IFR
Visi :
Ceiling :
>= 8 km
>= 3000ft
5 to 8 km
1000 to 3000 ft
1500m to 5 km
500 to 1000 ft
800 to 1500m
200 to 500 ft
< 800m
< 200 ft
Symbols :   Thunderstorms  Fog  Heavy snow  Heavy precipitations  Wind > 20 kt
SIGMETs :     Misc.  Thunderstorms  Icing  Turbulence  Mountain Waves  Volcanic Ashes







- Airport Elevation : 42 ft
- IATA code : KGD


UMKK - Khrabrava - Kaliningrad

CURRENT METAR :
  • 201900Z 29003MPS 9999 BKN028 M02/M05 Q1017 R24/29//50 NOSIG RMK QFE761/1015

EXPIRED METARs :
  • 201830Z 31003MPS 9999 BKN028 M02/M05 Q1017 R24/29//50 NOSIG RMK QFE761/1015
  • 201800Z 30002MPS 270V330 9999 BKN027CB M02/M04 Q1016 R24/29//50 NOSIG RMK QFE761/1015
  • 201730Z 32002MPS 280V010 9999 BKN026CB M01/M04 Q1016 R24/690350 NOSIG RMK QFE761/1015
  • 201700Z 34004MPS 9999 BKN026CB M01/M03 Q1016 R24/690350 NOSIG RMK QFE761/1015
  • 201630Z 27001MPS 9999 BKN024CB M01/M02 Q1016 R24/690350 NOSIG RMK QFE761/1014
  • 201600Z 22002MPS 9999 BKN023CB M01/M02 Q1016 R24/690350 NOSIG RMK QFE761/1014

TAF TAF UMKK
Valid from the 20 at 18:00 until the 21 at 18:00 UTC


201700Z 2018/2118 32003G08MPS 6000 SCT011 BKN020
TEMPO 2018/2020 VRB01MPS 3100 -SHSN BR SCT005 BKN015CB
BECMG 2020/2022 25003G08MPS
TEMPO 2109/2118 2000 SHSN VV004



MET'MAP, your aeronautical weather chart ! - Copyright ORBIFLY December 2007 - Disclaimer

ORBIFLY MET'MAP TEAM :

Programming & Development : Alexandra Zaïnal
Concept & Development : Baudouin d'Aumeries
Co-Development & Prog : Marc-Olivier Méhu
Technical & hardware support : Manuel Goepfert

Contact : metmap@orbifly.com




SOURCES & CREDITS :

   NOAA